Flight Track Log - Related Links

Times and Time Zones

All times are in EDT time to prevent confusion due to time zone crossing. See the EGF3675 flight status page for this flight to view local times or setup timezone preferences in your user account.

Time Position Orientation Groundspeed Altitude Reporting Facility
EDT Latitude Longitude Course Direction KTS MPH feet Rate Location/Type
Sat 07:30:26 PM 33.9328 -118.4342 55° Northeast 163 188 2,200  Level Los Angeles Center
Sat 07:31:28 PM 33.9067 -118.5133 248° West 230 265 5,000 2,634 Climbing Los Angeles Center
Sat 07:32:00 PM 34.1247 -118.0839 59° Northeast  Level FlightAware Approximate
Sat 07:32:29 PM 33.8592 -118.5747 227° Southwest 278 320 7,600  Level Los Angeles Center
Sat 07:33:00 PM 34.1914 -117.9505 59° Northeast  Level FlightAware Approximate
Sat 07:33:31 PM 33.8128 -118.5111 131° Southeast 294 338 10,000  Level Los Angeles Center
Sat 07:34:00 PM 34.2617 -117.8315 68° East  Level FlightAware Approximate
Sat 07:34:33 PM 33.8794 -118.4519 36° Northeast 317 365 11,600  Level Los Angeles Center
Sat 07:35:00 PM 34.3290 -117.7034 55° Northeast  Level FlightAware Approximate
Sat 07:35:35 PM 33.9603 -118.3981 29° Northeast 351 404 14,000  Level Los Angeles Center
Sat 07:36:37 PM 34.0150 -118.2928 58° Northeast 366 421 15,900 1,935 Climbing Los Angeles Center
Sat 07:37:39 PM 34.0739 -118.1858 56° Northeast 377 434 18,000 1,902 Climbing Los Angeles Center
Sat 07:38:40 PM 34.1358 -118.0772 55° Northeast 386 444 19,800 1,805 Climbing Los Angeles Center
Sat 07:39:42 PM 34.2122 -117.9400 56° Northeast 405 466 21,700 1,645 Climbing Los Angeles Center
Sat 07:40:44 PM 34.2783 -117.8222 56° Northeast 420 483 23,200 1,403 Climbing Los Angeles Center
Sat 07:41:46 PM 34.3458 -117.7008 56° Northeast 431 496 24,600 1,317 Climbing Los Angeles Center
Sat 07:42:47 PM 34.4181 -117.5706 56° Northeast 440 506 25,900 1,317 Climbing Los Angeles Center
Sat 07:43:49 PM 34.4989 -117.4569 49° Northeast 448 516 27,300 1,210 Climbing Los Angeles Center
Sat 07:44:51 PM 34.5808 -117.3419 49° Northeast 451 519 28,400 823 Climbing Los Angeles Center
Sat 07:45:53 PM 34.6653 -117.2219 49° Northeast 463 533 29,000 683 Climbing Los Angeles Center
Sat 07:46:54 PM 34.7514 -117.0986 50° Northeast 476 548 29,800 780 Climbing Los Angeles Center
Sat 07:47:56 PM 34.8381 -116.9742 50° Northeast 484 557 30,600 871 Climbing Los Angeles Center
Sat 07:48:58 PM 34.9425 -116.8242 50° Northeast 486 559 31,600 871 Climbing Los Angeles Center
Sat 07:50:00 PM 35.0317 -116.6958 50° Northeast 492 566 32,400 774 Climbing Los Angeles Center
Sat 07:51:02 PM 35.1219 -116.5678 49° Northeast 497 572 33,200 823 Climbing Los Angeles Center
Sat 07:52:04 PM 35.2106 -116.4403 50° Northeast 497 572 34,100 829 Climbing Los Angeles Center
Sat 07:53:05 PM 35.2808 -116.3392 50° Northeast 490 564 34,900 976 Climbing Los Angeles Center
Sat 07:54:07 PM 35.4014 -116.1600 50° Northeast 488 562 36,100 1,016 Climbing Los Angeles Center
Sat 07:55:09 PM 35.4889 -116.0350 49° Northeast 485 558 37,000 435 Climbing Los Angeles Center
Sat 07:56:11 PM 35.5583 -115.9339 50° Northeast 485 558 37,000  Level Los Angeles Center
Sat 07:57:13 PM 35.6617 -115.7814 50° Northeast 494 568 37,000  Level Los Angeles Center
Sat 07:58:15 PM 35.7525 -115.6483 50° Northeast 505 581 37,000  Level Los Angeles Center
Sat 07:59:17 PM 35.8597 -115.4878 50° Northeast 508 585 37,000  Level Los Angeles Center
Sat 08:00:19 PM 35.9492 -115.3553 50° Northeast 507 583 37,000  Level Los Angeles Center
Sat 08:01:21 PM 36.0358 -115.2208 51° Northeast 503 579 37,000  Level Los Angeles Center
Sat 08:02:23 PM 36.1069 -115.0692 60° Northeast 521 600 37,000  Level Los Angeles Center
Sat 08:03:25 PM 36.1653 -114.9047 66° East 523 602 37,000  Level Los Angeles Center
Sat 08:04:27 PM 36.2347 -114.7075 66° East 524 603 37,000  Level Los Angeles Center
Sat 08:05:29 PM 36.2922 -114.5425 67° East 523 602 37,000  Level Los Angeles Center
Sat 08:06:31 PM 36.3503 -114.3764 67° East 526 605 37,000  Level Los Angeles Center
Sat 08:07:33 PM 36.4083 -114.2106 66° East 525 604 37,000  Level Los Angeles Center
Sat 08:08:35 PM 36.4658 -114.0425 67° East 529 609 37,000  Level Los Angeles Center
Sat 08:09:37 PM 36.5333 -113.8450 67° East 531 611 37,000  Level Los Angeles Center
Sat 08:10:39 PM 36.5914 -113.6775 67° East 529 609 37,000  Level Los Angeles Center
Sat 08:11:41 PM 36.6475 -113.5086 67° East 529 609 37,000  Level Los Angeles Center
Sat 08:12:43 PM 36.7042 -113.3383 67° East 533 613 37,000  Level Los Angeles Center
Sat 08:13:44 PM 36.7619 -113.1706 67° East 531 611 37,000  Level Los Angeles Center
Sat 08:14:46 PM 36.8183 -113.0003 67° East 533 613 37,000  Level Los Angeles Center
Sat 08:15:48 PM 36.8861 -112.7953 67° East 535 616 37,000  Level Los Angeles Center
Sat 08:16:50 PM 36.9419 -112.6261 68° East 532 612 37,000  Level Los Angeles Center
Sat 08:17:52 PM 36.9986 -112.4550 67° East 536 617 37,000  Level Los Angeles Center
Sat 08:18:54 PM 37.0539 -112.2822 68° East 539 620 37,000  Level Los Angeles Center
Sat 08:19:55 PM 37.1117 -112.1106 67° East 540 621 37,000  Level Los Angeles Center
Sat 08:20:57 PM 37.1786 -111.9047 68° East 536 617 37,000  Level Los Angeles Center
Sat 08:21:35 PM 37.2100 -111.8033 69° East 535 616 37,000  Level Denver Center
Sat 08:22:37 PM 37.2633 -111.6308 69° East 534 615 37,000  Level Denver Center
Sat 08:23:38 PM 37.3181 -111.4575 68° East 536 617 37,000  Level Denver Center
Sat 08:24:40 PM 37.3728 -111.2825 68° East 541 623 37,000  Level Denver Center
Sat 08:25:41 PM 37.4264 -111.1086 69° East 537 618 37,000  Level Denver Center
Sat 08:26:43 PM 37.4817 -110.9325 68° East 542 624 37,000  Level Denver Center
Sat 08:27:44 PM 37.5469 -110.7225 69° East 539 620 37,000  Level Denver Center
Sat 08:28:45 PM 37.5997 -110.5453 69° East 541 623 37,000  Level Denver Center
Sat 08:29:47 PM 37.6517 -110.3747 69° East 540 621 37,000  Level Denver Center
Sat 08:30:48 PM 37.7036 -110.2044 69° East 541 623 37,000  Level Denver Center
Sat 08:31:49 PM 37.7622 -110.0058 69° East 539 620 37,000  Level Denver Center
Sat 08:32:51 PM 37.8139 -109.8347 69° East 543 625 37,000  Level Denver Center
Sat 08:33:52 PM 37.8731 -109.6353 69° East 541 623 37,000  Level Denver Center
Sat 08:34:53 PM 37.9233 -109.4631 70° East 543 625 37,000  Level Denver Center
Sat 08:35:55 PM 37.9736 -109.2914 70° East 542 624 37,000  Level Denver Center
Sat 08:36:56 PM 38.0314 -109.0889 70° East 546 628 37,000  Level Denver Center
Sat 08:37:58 PM 38.0803 -108.9144 70° East 549 632 37,000  Level Denver Center
Sat 08:38:59 PM 38.1389 -108.7128 70° East 547 629 37,000  Level Denver Center
Sat 08:40:00 PM 38.1878 -108.5428 70° East 540 621 37,000  Level Denver Center
Sat 08:41:02 PM 38.2361 -108.3711 70° East 540 621 37,000  Level Denver Center
Sat 08:42:03 PM 38.2925 -108.1689 70° East 544 626 37,000  Level Denver Center
Sat 08:43:04 PM 38.3411 -107.9958 70° East 542 624 37,000  Level Denver Center
Sat 08:44:18 PM 38.3961 -107.7944 71° East 541 623 37,000 -533 Level Denver Center
Sat 08:45:19 PM 38.4725 -107.6092 62° Northeast 529 609 35,800 -1,131 Descending Denver Center
Sat 08:46:20 PM 38.5519 -107.4258 61° Northeast 527 606 34,700 -1,024 Descending Denver Center
Sat 08:47:22 PM 38.6194 -107.2697 61° Northeast 525 604 33,700 -976 Descending Denver Center
Sat 08:48:23 PM 38.6922 -107.1028 61° Northeast 524 603 32,700 -984 Descending Denver Center
Sat 08:49:24 PM 38.7600 -106.9439 61° Northeast 512 589 31,700 -976 Descending Denver Center
Sat 08:50:26 PM 38.8264 -106.7858 62° Northeast 506 582 30,700 -1,024 Descending Denver Center
Sat 08:51:27 PM 38.9022 -106.6067 61° Northeast 508 585 29,600 -1,033 Descending Denver Center
Sat 08:52:28 PM 38.9667 -106.4558 61° Northeast 507 583 28,600 -927 Descending Denver Center
Sat 08:53:30 PM 39.0306 -106.3031 62° Northeast 508 585 27,700 -780 Descending Denver Center
Sat 08:54:31 PM 39.1014 -106.1472 60° Northeast 495 570 27,000 -934 Descending Denver Center
Sat 08:55:32 PM 39.1647 -106.0081 60° Northeast 451 519 25,800 -1,574 Descending Denver Center
Sat 08:56:33 PM 39.2331 -105.8494 61° Northeast 432 497 23,800 -1,805 Descending Denver Center
Sat 08:57:35 PM 39.2919 -105.7175 60° Northeast 422 486 22,100 -1,366 Descending Denver Center
Sat 08:58:36 PM 39.3472 -105.5919 60° Northeast 401 461 21,000 -934 Descending Denver Center
Sat 08:59:37 PM 39.3969 -105.4781 61° Northeast 368 423 20,200 -537 Descending Denver Center
Sat 09:00:39 PM 39.4567 -105.3669 55° Northeast 351 404 19,900 -829 Descending Denver Center
Sat 09:01:40 PM 39.5100 -105.2617 57° Northeast 359 413 18,500 -1,951 Descending Denver Center
Sat 09:02:42 PM 39.5656 -105.1578 55° Northeast 352 405 15,900 -2,000 Descending Denver Center
Sat 09:03:43 PM 39.6208 -105.0517 56° Northeast 330 380 14,400 -1,279 Descending Denver Center
Sat 09:04:44 PM 39.6694 -104.9575 56° Northeast 315 362 13,300 -683 Descending Denver Center
Sat 09:05:46 PM 39.7169 -104.8683 55° Northeast 301 346 13,000 -683 Descending Denver Center
Sat 09:06:47 PM 39.7978 -104.8411 15° North 300 345 11,900 -927 Descending Denver Center
Sat 09:07:49 PM 39.8883 -104.8397 North 301 346 11,100 -780 Descending Denver Center
Sat 09:08:50 PM 39.9617 -104.8386 North 261 300 10,300 -1,082 Descending Denver Center
Sat 09:09:51 PM 39.9992 -104.7817 49° Northeast 220 253 8,900 -1,377 Descending Denver Center

Login

Don't have an account? Register now (free) for customized features, flight alerts, and more!